Time;durP1;ratioP1;P1;durP2;ratioP2;P2;SDS_P1;SDS_P2;PMS_P1;PMS_P2;Temp;Humidity;BMP_temperature;BMP_pressure;BME280_temperature;BME280_humidity;BME280_pressure;Samples;Min_cycle;Max_cycle;Signal;HPM_P1;HPM_P2
2021/07/06 00:01:49;;;;;;;5.07;4.68;;;16.50;99.90;;;;;;5059258;28;20235;-71
2021/07/06 00:04:17;;;;;;;4.60;4.30;;;16.40;99.90;;;;;;5066026;28;20284;-72
2021/07/06 00:06:44;;;;;;;4.60;4.30;;;16.30;99.90;;;;;;5056121;28;20204;-72
2021/07/06 00:09:11;;;;;;;4.70;4.40;;;16.20;99.90;;;;;;5064235;28;20586;-72
2021/07/06 00:11:38;;;;;;;4.82;4.43;;;16.30;99.90;;;;;;5061440;28;20209;-71
2021/07/06 00:14:05;;;;;;;4.47;4.15;;;16.40;99.90;;;;;;5059916;28;20792;-72
2021/07/06 00:16:32;;;;;;;9.75;4.43;;;16.40;99.90;;;;;;5061249;28;20565;-72
2021/07/06 00:18:59;;;;;;;4.72;4.32;;;16.40;99.90;;;;;;5064620;28;20208;-72
2021/07/06 00:21:27;;;;;;;5.13;4.63;;;16.40;99.90;;;;;;5060276;28;20320;-72
2021/07/06 00:23:55;;;;;;;4.45;4.15;;;16.40;99.90;;;;;;5063637;28;20332;-72
2021/07/06 00:26:22;;;;;;;4.60;4.20;;;16.40;99.90;;;;;;5054922;28;20284;-72
2021/07/06 00:28:49;;;;;;;4.65;4.28;;;16.40;99.90;;;;;;5062494;28;20208;-72
2021/07/06 00:31:16;;;;;;;4.18;3.90;;;16.40;99.90;;;;;;5058528;28;20236;-72
2021/07/06 00:33:43;;;;;;;4.47;4.07;;;16.40;99.90;;;;;;5047841;28;20284;-72
2021/07/06 00:36:10;;;;;;;4.07;3.78;;;16.50;99.90;;;;;;5064032;28;20205;-72
2021/07/06 00:38:38;;;;;;;4.00;3.70;;;16.40;99.90;;;;;;5064154;28;20292;-71
2021/07/06 00:41:05;;;;;;;4.07;3.65;;;16.50;99.90;;;;;;5060902;28;20691;-72
2021/07/06 00:43:36;;;;;;;4.80;4.40;;;16.50;99.90;;;;;;5052454;28;20210;-72
2021/07/06 00:46:03;;;;;;;4.25;3.95;;;16.60;99.90;;;;;;5055708;28;20220;-72
2021/07/06 00:48:30;;;;;;;4.78;4.43;;;16.50;99.90;;;;;;5063888;28;20320;-72
2021/07/06 00:50:57;;;;;;;4.20;3.90;;;16.50;99.90;;;;;;5065659;28;20211;-72
2021/07/06 00:53:24;;;;;;;4.32;4.03;;;16.60;99.90;;;;;;5056919;28;20224;-71
2021/07/06 00:55:56;;;;;;;4.75;3.78;;;16.50;99.90;;;;;;5056165;28;20223;-72
2021/07/06 00:58:24;;;;;;;4.07;3.78;;;16.60;99.90;;;;;;5060651;28;20205;-71
2021/07/06 01:00:51;;;;;;;3.58;3.28;;;16.70;99.90;;;;;;5063951;28;20236;-72
2021/07/06 01:03:18;;;;;;;3.67;3.47;;;16.50;99.90;;;;;;5066423;28;20201;-72
2021/07/06 01:05:45;;;;;;;3.83;3.53;;;16.60;99.90;;;;;;5065345;28;20682;-72
2021/07/06 01:08:11;;;;;;;3.40;3.20;;;16.50;99.90;;;;;;5063647;28;20292;-72
2021/07/06 01:10:39;;;;;;;6.22;4.30;;;16.60;99.90;;;;;;5067889;28;20204;-72
2021/07/06 01:13:08;;;;;;;4.00;3.70;;;16.40;99.90;;;;;;5060788;28;20202;-72
2021/07/06 01:15:35;;;;;;;3.97;3.70;;;16.30;99.90;;;;;;5058702;28;20415;-72
2021/07/06 01:18:06;;;;;;;3.83;3.53;;;16.30;99.90;;;;;;5059692;28;20289;-72
2021/07/06 01:20:34;;;;;;;5.47;4.10;;;16.40;99.90;;;;;;5067062;28;20228;-72
2021/07/06 01:23:03;;;;;;;4.20;3.90;;;16.40;99.90;;;;;;5068445;28;20215;-72
2021/07/06 01:25:30;;;;;;;4.03;3.72;;;16.20;99.90;;;;;;5066603;28;20288;-72
2021/07/06 01:27:57;;;;;;;3.83;3.53;;;16.20;99.90;;;;;;5064363;28;20205;-72
2021/07/06 01:30:24;;;;;;;4.25;3.95;;;16.20;99.90;;;;;;5067390;28;20287;-71
2021/07/06 01:32:51;;;;;;;4.18;3.78;;;16.30;99.90;;;;;;5058587;28;20304;-72
2021/07/06 01:35:19;;;;;;;4.28;3.97;;;16.20;99.90;;;;;;5063574;28;20240;-71
2021/07/06 01:37:47;;;;;;;4.45;4.10;;;16.20;99.90;;;;;;5067758;28;20291;-72
2021/07/06 01:40:17;;;;;;;4.20;3.90;;;16.20;99.90;;;;;;5062562;28;20294;-71
2021/07/06 01:42:45;;;;;;;4.47;4.18;;;16.20;99.90;;;;;;5066357;28;20540;-72
2021/07/06 01:45:14;;;;;;;4.80;4.50;;;16.20;99.90;;;;;;5064033;28;20205;-72
2021/07/06 01:47:42;;;;;;;3.75;3.45;;;16.10;99.90;;;;;;5068068;28;20205;-72
2021/07/06 01:50:12;;;;;;;3.92;3.70;;;16.10;99.90;;;;;;5067908;28;20205;-72
2021/07/06 01:52:43;;;;;;;4.10;3.90;;;16.10;99.90;;;;;;5064411;28;20295;-72
2021/07/06 01:55:11;;;;;;;4.50;4.00;;;16.10;99.90;;;;;;5066860;28;20220;-72
2021/07/06 01:57:40;;;;;;;4.40;4.05;;;16.20;99.90;;;;;;5059200;28;20197;-71
2021/07/06 02:00:09;;;;;;;3.90;3.60;;;16.20;99.90;;;;;;5061222;28;20221;-72
2021/07/06 02:02:36;;;;;;;3.55;3.25;;;16.20;99.90;;;;;;5059638;28;20244;-72
2021/07/06 02:05:25;;;;;;;3.90;3.60;;;16.10;99.90;;;;;;5065831;28;20209;-72
2021/07/06 02:07:52;;;;;;;4.20;3.40;;;16.00;99.90;;;;;;5062652;28;21312;-72
2021/07/06 02:10:19;;;;;;;3.80;3.60;;;15.90;99.90;;;;;;5065393;28;20569;-71
2021/07/06 02:12:48;;;;;;;4.50;4.10;;;15.90;99.90;;;;;;5067267;28;20223;-72
2021/07/06 02:15:17;;;;;;;4.00;3.70;;;15.90;99.90;;;;;;5066751;28;20231;-72
2021/07/06 02:17:44;;;;;;;3.70;3.47;;;15.90;99.90;;;;;;5067634;28;20220;-72
2021/07/06 02:20:14;;;;;;;3.90;3.70;;;16.00;99.90;;;;;;5060716;28;20208;-72
2021/07/06 02:22:43;;;;;;;3.50;3.30;;;16.00;99.90;;;;;;5057817;28;20225;-72
2021/07/06 02:25:11;;;;;;;3.50;3.30;;;16.10;99.90;;;;;;5058444;28;20212;-72
2021/07/06 02:27:38;;;;;;;5.90;3.90;;;16.10;99.90;;;;;;5063341;28;20671;-72
2021/07/06 02:30:09;;;;;;;4.00;3.70;;;16.20;99.90;;;;;;5062147;28;20230;-71
2021/07/06 02:32:37;;;;;;;3.63;3.40;;;16.20;99.90;;;;;;5058400;28;20205;-72
2021/07/06 02:35:04;;;;;;;3.92;3.65;;;16.20;99.90;;;;;;5066336;28;20209;-72
2021/07/06 02:37:31;;;;;;;4.10;3.80;;;16.20;99.90;;;;;;5059807;28;20205;-71
2021/07/06 02:39:58;;;;;;;3.60;3.40;;;16.20;99.90;;;;;;5061277;28;20209;-72
2021/07/06 02:42:25;;;;;;;3.70;3.40;;;16.20;99.90;;;;;;5064284;28;20236;-71
2021/07/06 02:44:52;;;;;;;4.20;3.90;;;16.20;99.90;;;;;;5063985;28;20634;-72
2021/07/06 02:47:20;;;;;;;4.60;4.20;;;16.20;99.90;;;;;;5057673;28;20208;-72
2021/07/06 02:49:47;;;;;;;5.22;3.50;;;16.20;99.90;;;;;;5057704;28;20700;-72
2021/07/06 02:52:14;;;;;;;5.25;3.70;;;16.30;99.90;;;;;;5065917;28;20308;-71
2021/07/06 02:54:41;;;;;;;4.45;4.15;;;16.30;99.90;;;;;;5059212;28;20733;-72
2021/07/06 02:57:10;;;;;;;4.60;4.30;;;16.30;99.90;;;;;;5061730;28;20197;-72
2021/07/06 02:59:37;;;;;;;9.07;4.05;;;16.30;99.90;;;;;;5063297;28;20228;-72
2021/07/06 03:02:04;;;;;;;4.05;3.75;;;16.20;99.90;;;;;;5062658;28;20221;-72
2021/07/06 03:04:32;;;;;;;5.18;4.60;;;16.20;99.90;;;;;;5065763;28;20283;-72
2021/07/06 03:06:59;;;;;;;4.20;3.88;;;16.20;99.90;;;;;;5059413;28;20296;-71
2021/07/06 03:09:26;;;;;;;4.30;4.00;;;16.20;99.90;;;;;;5066893;28;20288;-72
2021/07/06 03:11:53;;;;;;;4.50;4.20;;;16.20;99.90;;;;;;5064276;28;20219;-72
2021/07/06 03:14:19;;;;;;;5.07;4.68;;;16.20;99.90;;;;;;5066630;28;20702;-72
2021/07/06 03:16:46;;;;;;;6.10;4.65;;;16.10;99.90;;;;;;5061583;28;20658;-71
2021/07/06 03:19:13;;;;;;;4.40;4.05;;;16.00;99.90;;;;;;5066413;28;20211;-71
2021/07/06 03:21:41;;;;;;;5.10;4.65;;;16.00;99.90;;;;;;5064392;28;20228;-71
2021/07/06 03:24:08;;;;;;;5.20;4.75;;;15.90;99.90;;;;;;5064101;28;20284;-72
2021/07/06 03:26:35;;;;;;;5.00;4.70;;;15.90;99.90;;;;;;5063094;28;20193;-72
2021/07/06 03:29:02;;;;;;;4.65;4.35;;;15.90;99.90;;;;;;5060801;28;20237;-72
2021/07/06 03:31:29;;;;;;;5.40;5.00;;;15.90;99.90;;;;;;5064848;28;20678;-71
2021/07/06 03:33:56;;;;;;;5.70;4.80;;;15.90;99.90;;;;;;5065624;28;20550;-72
2021/07/06 03:36:23;;;;;;;5.18;4.88;;;15.90;99.90;;;;;;5063258;28;20300;-71
2021/07/06 03:38:51;;;;;;;4.13;3.83;;;16.00;99.90;;;;;;5062491;28;20229;-72
2021/07/06 03:41:20;;;;;;;4.18;3.90;;;16.00;99.90;;;;;;5065790;28;20233;-72
2021/07/06 03:43:46;;;;;;;4.00;3.70;;;16.00;99.90;;;;;;5065658;28;20308;-72
2021/07/06 03:46:13;;;;;;;4.20;3.90;;;16.10;99.90;;;;;;5065832;28;20335;-71
2021/07/06 03:48:40;;;;;;;4.60;4.30;;;16.20;99.90;;;;;;5059779;28;20635;-72
2021/07/06 03:51:07;;;;;;;4.10;3.80;;;16.20;99.90;;;;;;5060296;28;20201;-72
2021/07/06 03:53:34;;;;;;;3.80;3.60;;;16.30;99.90;;;;;;5063569;28;20213;-72
2021/07/06 03:56:02;;;;;;;6.28;4.20;;;16.30;99.90;;;;;;5063891;28;20220;-72
2021/07/06 03:58:29;;;;;;;4.78;4.13;;;16.40;99.90;;;;;;5064794;28;20738;-72
2021/07/06 04:00:55;;;;;;;4.55;4.25;;;16.40;99.90;;;;;;5052473;28;20211;-72
2021/07/06 04:03:25;;;;;;;7.90;3.70;;;16.40;99.90;;;;;;5058934;28;20221;-72
2021/07/06 04:05:52;;;;;;;4.25;3.63;;;16.40;99.90;;;;;;5059402;28;20692;-71
2021/07/06 04:08:18;;;;;;;3.53;3.33;;;16.50;99.90;;;;;;5064435;28;20563;-72
2021/07/06 04:10:45;;;;;;;5.65;3.60;;;16.70;99.90;;;;;;5061718;28;20232;-72
2021/07/06 04:13:14;;;;;;;3.40;3.20;;;17.30;99.90;;;;;;5060960;28;20692;-71
2021/07/06 04:15:40;;;;;;;2.93;2.73;;;18.30;99.90;;;;;;5055918;28;20202;-72
2021/07/06 04:18:07;;;;;;;2.80;2.43;;;19.60;99.90;;;;;;5060335;28;20714;-72
2021/07/06 04:20:34;;;;;;;2.10;2.00;;;20.60;99.90;;;;;;5065422;28;20630;-72
2021/07/06 04:23:01;;;;;;;2.67;2.40;;;22.20;99.90;;;;;;5058983;28;20690;-72
2021/07/06 04:25:28;;;;;;;2.40;2.30;;;23.40;97.30;;;;;;5062648;28;20639;-72
2021/07/06 04:27:55;;;;;;;2.53;2.43;;;24.20;96.00;;;;;;5065077;28;20689;-72
2021/07/06 04:30:23;;;;;;;2.60;2.40;;;25.40;94.20;;;;;;5063868;28;21190;-72
2021/07/06 04:32:50;;;;;;;2.67;2.47;;;25.80;91.50;;;;;;5061033;28;20636;-72
2021/07/06 04:35:18;;;;;;;3.30;2.17;;;25.80;91.50;;;;;;5067148;28;20623;-72
2021/07/06 04:37:45;;;;;;;2.57;2.40;;;26.20;90.40;;;;;;5068303;28;20649;-72
2021/07/06 04:40:13;;;;;;;2.80;2.60;;;26.00;90.20;;;;;;5064020;28;21087;-72
2021/07/06 04:42:40;;;;;;;2.67;2.47;;;25.60;90.40;;;;;;5058230;28;20686;-72
2021/07/06 04:45:07;;;;;;;2.77;2.57;;;25.40;90.60;;;;;;5068896;28;20966;-72
2021/07/06 04:47:37;;;;;;;2.30;2.20;;;24.60;91.40;;;;;;5063565;28;20660;-72
2021/07/06 04:50:07;;;;;;;3.20;2.80;;;24.10;92.50;;;;;;5069101;28;20669;-72
2021/07/06 04:52:34;;;;;;;2.67;2.47;;;23.70;92.60;;;;;;5062571;28;21426;-72
2021/07/06 04:55:01;;;;;;;2.20;2.10;;;24.90;92.10;;;;;;5067096;28;20635;-73
2021/07/06 04:57:28;;;;;;;2.70;2.17;;;26.20;90.40;;;;;;5063490;28;20981;-72
2021/07/06 04:59:54;;;;;;;1.80;1.67;;;27.70;86.00;;;;;;5064526;28;20745;-73
2021/07/06 05:02:21;;;;;;;2.60;1.70;;;28.50;82.50;;;;;;5063665;28;20685;-73
2021/07/06 05:04:50;;;;;;;1.67;1.60;;;28.10;81.60;;;;;;5065837;28;20750;-73
2021/07/06 05:07:16;;;;;;;2.30;1.83;;;29.00;79.70;;;;;;5063267;28;21085;-73
2021/07/06 05:09:43;;;;;;;1.90;1.67;;;28.90;78.50;;;;;;5066531;28;20662;-72
2021/07/06 05:12:10;;;;;;;2.20;2.00;;;30.00;77.00;;;;;;5065178;28;20716;-73
2021/07/06 05:14:37;;;;;;;1.70;1.63;;;30.80;73.80;;;;;;5067179;28;20641;-73
2021/07/06 05:17:04;;;;;;;1.80;1.70;;;31.40;72.20;;;;;;5068995;28;20639;-72
2021/07/06 05:19:31;;;;;;;2.43;2.23;;;31.80;69.10;;;;;;5062403;28;20727;-73
2021/07/06 05:21:59;;;;;;;2.47;2.00;;;29.70;72.90;;;;;;5064838;28;20770;-73
2021/07/06 05:24:26;;;;;;;1.90;1.80;;;27.90;78.40;;;;;;5061970;28;20989;-72
2021/07/06 05:26:53;;;;;;;3.57;2.13;;;26.10;84.10;;;;;;5062312;28;20724;-72
2021/07/06 05:29:20;;;;;;;2.90;2.20;;;24.60;90.50;;;;;;5064945;28;20746;-72
2021/07/06 05:31:47;;;;;;;2.20;2.10;;;23.80;92.30;;;;;;5068977;28;20659;-72
2021/07/06 05:34:14;;;;;;;2.47;2.33;;;23.70;92.90;;;;;;5064055;28;20669;-72
2021/07/06 05:36:41;;;;;;;1.90;1.80;;;24.90;91.60;;;;;;5067505;28;20623;-72
2021/07/06 05:39:09;;;;;;;1.93;1.83;;;26.50;89.80;;;;;;5064531;28;20634;-72
2021/07/06 05:41:36;;;;;;;1.90;1.80;;;28.20;82.60;;;;;;5066021;28;20650;-72
2021/07/06 05:44:03;;;;;;;1.67;1.57;;;29.90;76.60;;;;;;5067272;28;21349;-72
2021/07/06 05:46:30;;;;;;;1.77;1.67;;;30.60;73.40;;;;;;5061884;28;20709;-72
2021/07/06 05:49:00;;;;;;;1.67;1.57;;;30.70;72.70;;;;;;5063889;28;20673;-72
2021/07/06 05:51:27;;;;;;;1.33;1.20;;;31.10;71.40;;;;;;5067486;28;20634;-72
2021/07/06 05:53:54;;;;;;;2.30;1.63;;;31.90;69.10;;;;;;5065723;28;20888;-72
2021/07/06 05:56:25;;;;;;;1.50;1.40;;;32.50;67.50;;;;;;5066098;28;20722;-72
2021/07/06 05:58:52;;;;;;;1.20;1.20;;;33.80;63.60;;;;;;5063023;28;20640;-72
2021/07/06 06:01:19;;;;;;;1.53;1.53;;;34.70;61.00;;;;;;5061223;28;20629;-72
2021/07/06 06:03:45;;;;;;;2.40;1.60;;;33.60;61.00;;;;;;5062846;28;20786;-72
2021/07/06 06:06:12;;;;;;;1.90;1.23;;;33.60;61.40;;;;;;5067669;28;20718;-72
2021/07/06 06:08:40;;;;;;;1.77;1.63;;;34.50;59.70;;;;;;5057592;28;20669;-71
2021/07/06 06:11:08;;;;;;;1.27;1.27;;;35.60;57.80;;;;;;5065773;28;20670;-72
2021/07/06 06:13:37;;;;;;;1.80;1.43;;;35.70;59.00;;;;;;5067472;28;21241;-73
2021/07/06 06:16:04;;;;;;;2.60;2.50;;;35.50;60.00;;;;;;5062319;28;20735;-73
2021/07/06 06:18:31;;;;;;;2.63;2.43;;;35.00;60.80;;;;;;5061806;28;20734;-72
2021/07/06 06:20:58;;;;;;;3.20;3.00;;;34.40;62.10;;;;;;5064305;28;20634;-72
2021/07/06 06:23:24;;;;;;;4.47;2.77;;;34.20;61.80;;;;;;5067674;28;21521;-72
2021/07/06 06:25:53;;;;;;;2.73;2.30;;;33.70;62.60;;;;;;5073523;22;21838;-73
2021/07/06 06:28:20;;;;;;;4.77;2.10;;;33.30;62.70;;;;;;5064655;28;20635;-73
2021/07/06 06:30:48;;;;;;;3.00;1.90;;;33.70;64.30;;;;;;5067856;22;20710;-72
2021/07/06 06:33:15;;;;;;;1.70;1.60;;;34.40;60.90;;;;;;5061253;28;20694;-72
2021/07/06 06:35:42;;;;;;;1.93;1.77;;;35.30;59.50;;;;;;5062608;28;21019;-73
2021/07/06 06:38:09;;;;;;;2.40;2.20;;;35.30;59.60;;;;;;5064259;28;20629;-72
2021/07/06 06:40:36;;;;;;;2.50;2.30;;;34.50;60.40;;;;;;5057697;28;20623;-72
2021/07/06 06:43:03;;;;;;;3.70;2.17;;;34.70;60.30;;;;;;5067751;28;21184;-72
2021/07/06 06:45:31;;;;;;;2.53;2.10;;;34.60;60.20;;;;;;5066616;28;20630;-72
2021/07/06 06:47:59;;;;;;;2.27;2.10;;;35.00;59.40;;;;;;5066999;28;20627;-71
2021/07/06 06:50:26;;;;;;;1.93;1.80;;;36.20;57.30;;;;;;5062169;28;20733;-73
2021/07/06 06:52:53;;;;;;;3.20;1.83;;;35.80;58.10;;;;;;5055358;28;20816;-72
2021/07/06 06:55:21;;;;;;;2.03;1.70;;;36.00;57.50;;;;;;5060383;28;20662;-71
2021/07/06 06:57:48;;;;;;;1.70;1.60;;;35.80;57.80;;;;;;5065852;28;20638;-72
2021/07/06 07:00:15;;;;;;;1.23;1.23;;;35.50;59.20;;;;;;5064376;28;20645;-72
2021/07/06 07:02:44;;;;;;;2.73;1.40;;;35.30;57.70;;;;;;5065949;28;20623;-72
2021/07/06 07:05:14;;;;;;;1.50;1.40;;;34.30;59.20;;;;;;5060260;28;20630;-72
2021/07/06 07:07:41;;;;;;;1.23;1.23;;;34.80;59.10;;;;;;5055421;28;20685;-72
2021/07/06 07:10:10;;;;;;;1.77;1.67;;;34.50;59.20;;;;;;5057404;28;21010;-72
2021/07/06 07:12:39;;;;;;;1.43;1.33;;;35.00;59.00;;;;;;5066050;28;20677;-72
2021/07/06 07:15:09;;;;;;;1.63;1.20;;;35.00;58.80;;;;;;5057278;28;21266;-72
2021/07/06 07:17:36;;;;;;;2.77;2.00;;;35.10;57.20;;;;;;5064407;28;20631;-72
2021/07/06 07:20:09;;;;;;;1.70;1.60;;;34.80;57.80;;;;;;5063238;28;20642;-72
2021/07/06 07:22:38;;;;;;;1.63;1.53;;;33.70;59.20;;;;;;5061148;28;20639;-72
2021/07/06 07:25:06;;;;;;;2.00;1.90;;;33.50;59.90;;;;;;5057287;28;20731;-72
2021/07/06 07:27:33;;;;;;;1.70;1.60;;;32.40;63.40;;;;;;5060158;28;20685;-72
2021/07/06 07:30:00;;;;;;;1.70;1.60;;;31.60;65.30;;;;;;5064970;28;20679;-71
2021/07/06 07:32:27;;;;;;;2.20;1.57;;;31.30;68.70;;;;;;5061032;28;21264;-72
2021/07/06 07:34:54;;;;;;;1.73;1.63;;;31.90;66.60;;;;;;5065563;28;20635;-72
2021/07/06 07:37:21;;;;;;;1.70;1.60;;;32.40;64.80;;;;;;5065457;28;21059;-72
2021/07/06 07:39:49;;;;;;;1.67;1.57;;;31.80;67.30;;;;;;5059592;28;20714;-72
2021/07/06 07:42:19;;;;;;;1.43;1.33;;;31.80;69.50;;;;;;5060725;28;20738;-71
2021/07/06 07:44:46;;;;;;;2.23;1.50;;;32.00;68.70;;;;;;5066026;28;20636;-71
2021/07/06 07:47:14;;;;;;;2.40;1.57;;;31.50;70.80;;;;;;5057172;28;21258;-71
2021/07/06 07:49:40;;;;;;;1.80;1.70;;;32.30;67.80;;;;;;5058272;28;20638;-71
2021/07/06 07:52:08;;;;;;;1.70;1.60;;;33.10;65.60;;;;;;5066350;28;20627;-72
2021/07/06 07:54:35;;;;;;;1.70;1.60;;;33.70;65.20;;;;;;5061409;28;20634;-72
2021/07/06 07:57:06;;;;;;;1.63;1.33;;;34.90;61.50;;;;;;5065679;28;21270;-72
2021/07/06 07:59:33;;;;;;;1.70;1.60;;;34.50;60.00;;;;;;5060952;28;21598;-72
2021/07/06 08:02:00;;;;;;;1.30;1.20;;;33.60;61.60;;;;;;5062419;28;21111;-72
2021/07/06 08:04:27;;;;;;;1.87;1.50;;;32.90;61.30;;;;;;5062092;28;20645;-73
2021/07/06 08:06:53;;;;;;;1.90;1.80;;;32.70;62.80;;;;;;5064691;28;20627;-71
2021/07/06 08:09:20;;;;;;;1.40;1.30;;;32.50;63.80;;;;;;5064780;28;20631;-72
2021/07/06 08:11:47;;;;;;;1.47;1.30;;;32.00;63.60;;;;;;5065326;28;20708;-72
2021/07/06 08:14:16;;;;;;;2.83;1.60;;;31.00;68.10;;;;;;5063938;28;21475;-71
2021/07/06 08:16:43;;;;;;;3.73;1.37;;;30.50;69.30;;;;;;5062820;28;20752;-73
2021/07/06 08:19:10;;;;;;;2.50;1.50;;;30.60;67.50;;;;;;5056489;28;20621;-71
2021/07/06 08:21:36;;;;;;;1.33;1.17;;;30.40;72.40;;;;;;5061088;28;20737;-71
2021/07/06 08:24:04;;;;;;;1.43;1.33;;;30.40;70.30;;;;;;5062165;28;20641;-71
2021/07/06 08:26:32;;;;;;;1.27;1.20;;;30.80;70.60;;;;;;5065949;28;20637;-71
2021/07/06 08:28:58;;;;;;;1.50;1.37;;;31.50;70.20;;;;;;5066628;28;20757;-71
2021/07/06 08:31:27;;;;;;;1.20;1.10;;;32.30;65.60;;;;;;5063608;28;21207;-71
2021/07/06 08:33:54;;;;;;;1.50;1.40;;;32.90;66.70;;;;;;5063485;28;20717;-72
2021/07/06 08:36:20;;;;;;;1.23;1.20;;;33.30;64.60;;;;;;5061469;28;20743;-71
2021/07/06 08:38:47;;;;;;;1.60;1.17;;;35.10;60.60;;;;;;5063373;28;20630;-71
2021/07/06 08:41:14;;;;;;;1.10;1.10;;;34.40;61.20;;;;;;5057831;28;20623;-71
2021/07/06 08:43:42;;;;;;;1.73;1.60;;;34.00;63.60;;;;;;5062038;28;20751;-72
2021/07/06 08:46:10;;;;;;;1.20;1.20;;;34.10;62.80;;;;;;5063215;28;20659;-72
2021/07/06 08:48:38;;;;;;;1.23;1.23;;;33.90;64.10;;;;;;5058061;28;20636;-71
2021/07/06 08:51:05;;;;;;;1.40;1.30;;;34.20;64.00;;;;;;5063910;28;20630;-71
2021/07/06 08:53:32;;;;;;;1.60;1.50;;;34.60;63.50;;;;;;5065699;28;20677;-71
2021/07/06 08:55:59;;;;;;;1.10;1.10;;;35.30;62.40;;;;;;5059677;28;20809;-71
2021/07/06 08:58:26;;;;;;;2.13;1.40;;;35.20;61.20;;;;;;5066160;28;20645;-69
2021/07/06 09:00:55;;;;;;;1.30;1.20;;;35.10;60.90;;;;;;5069369;23;20690;-66
2021/07/06 09:03:22;;;;;;;3.93;1.40;;;35.30;59.60;;;;;;5061928;28;20632;-67
2021/07/06 09:06:03;;;;;;;1.30;1.30;;;35.30;59.40;;;;;;5070549;22;20685;-75
2021/07/06 09:08:30;;;;;;;1.70;1.43;;;34.80;60.70;;;;;;5066228;28;20680;-70
2021/07/06 09:10:57;;;;;;;1.40;1.30;;;34.70;60.30;;;;;;5064925;28;20701;-70
2021/07/06 09:13:28;;;;;;;1.43;1.40;;;34.60;60.90;;;;;;5065685;28;20682;-69
2021/07/06 09:15:56;;;;;;;1.30;1.30;;;35.10;59.70;;;;;;5065434;28;20623;-69
2021/07/06 09:18:29;;;;;;;1.40;1.30;;;34.80;59.70;;;;;;5063642;28;20731;-70
2021/07/06 09:21:03;;;;;;;1.30;1.30;;;34.30;60.00;;;;;;5057576;28;20734;-69
2021/07/06 09:23:37;;;;;;;1.40;1.40;;;33.40;61.80;;;;;;5068976;28;21011;-69
2021/07/06 09:26:10;;;;;;;1.63;1.60;;;32.40;65.80;;;;;;5066428;28;20637;-70
2021/07/06 09:28:43;;;;;;;1.63;1.53;;;31.30;69.10;;;;;;5065049;28;20635;-70
2021/07/06 09:31:20;;;;;;;1.40;1.40;;;30.20;71.90;;;;;;5070358;28;21280;-71
2021/07/06 09:33:50;;;;;;;1.80;1.43;;;29.60;72.10;;;;;;5067919;28;21023;-70
2021/07/06 09:36:33;;;;;;;2.07;1.97;;;29.10;74.90;;;;;;5065659;28;20627;-68
2021/07/06 09:39:02;;;;;;;2.37;1.80;;;28.40;78.10;;;;;;5067439;28;20671;-69
2021/07/06 09:41:29;;;;;;;1.93;1.83;;;27.90;80.70;;;;;;5066996;28;20627;-70
2021/07/06 09:43:56;;;;;;;2.47;2.27;;;27.00;80.60;;;;;;5066607;28;20730;-70
2021/07/06 09:46:24;;;;;;;3.97;2.80;;;25.90;84.60;;;;;;5069275;28;20630;-71
2021/07/06 09:49:02;;;;;;;3.00;2.80;;;24.80;88.50;;;;;;5067049;28;21265;-71
2021/07/06 09:51:30;;;;;;;2.60;2.40;;;24.00;90.60;;;;;;5067010;28;20630;-70
2021/07/06 09:54:04;;;;;;;6.97;2.70;;;23.40;91.50;;;;;;5065318;28;20747;-70
2021/07/06 09:56:31;;;;;;;2.50;2.13;;;23.10;92.50;;;;;;5057041;28;20628;-70
2021/07/06 09:59:00;;;;;;;1.90;1.80;;;22.90;92.70;;;;;;5066846;28;20719;-71
2021/07/06 10:01:28;;;;;;;1.80;1.70;;;22.70;93.10;;;;;;5062359;28;20625;-71
2021/07/06 10:03:56;;;;;;;1.67;1.57;;;22.70;93.70;;;;;;5066735;28;21117;-71
2021/07/06 10:06:24;;;;;;;2.70;1.67;;;23.00;92.80;;;;;;5056614;28;20645;-71
2021/07/06 10:08:54;;;;;;;3.43;1.17;;;23.80;92.80;;;;;;5067836;28;20628;-70
2021/07/06 10:11:23;;;;;;;1.43;0.70;;;24.90;90.70;;;;;;5058353;28;20731;-70
2021/07/06 10:13:52;;;;;;;1.97;0.83;;;25.90;88.20;;;;;;5068634;28;21112;-71
2021/07/06 10:16:19;;;;;;;0.70;0.70;;;26.40;85.60;;;;;;5068972;28;20637;-70
2021/07/06 10:18:49;;;;;;;0.80;0.80;;;26.80;85.40;;;;;;5068440;28;20635;-72
2021/07/06 10:21:16;;;;;;;1.00;0.80;;;27.10;83.90;;;;;;5066983;28;21176;-71
2021/07/06 10:23:44;;;;;;;1.20;0.70;;;26.70;82.10;;;;;;5063718;28;20663;-71
2021/07/06 10:26:25;;;;;;;0.70;0.70;;;26.40;83.50;;;;;;5060684;28;20686;-72
2021/07/06 10:28:52;;;;;;;1.10;0.67;;;26.10;86.30;;;;;;5068460;28;20703;-71
2021/07/06 10:31:21;;;;;;;0.70;0.63;;;26.60;84.20;;;;;;5065126;28;20683;-72
2021/07/06 10:33:52;;;;;;;0.80;0.80;;;26.50;82.60;;;;;;5061296;28;20682;-71
2021/07/06 10:36:34;;;;;;;1.07;0.97;;;26.60;86.10;;;;;;5060750;28;20633;-70
2021/07/06 10:39:01;;;;;;;0.93;0.90;;;26.60;84.10;;;;;;5067083;28;20662;-71
2021/07/06 10:41:52;;;;;;;0.80;0.80;;;26.30;83.70;;;;;;5067044;28;21057;-70
2021/07/06 10:44:19;;;;;;;0.80;0.80;;;26.10;86.80;;;;;;5067322;28;21472;-71
2021/07/06 10:46:49;;;;;;;1.23;1.07;;;25.70;85.90;;;;;;5064170;28;20689;-71
2021/07/06 10:49:28;;;;;;;1.17;0.80;;;25.50;87.00;;;;;;5067216;28;21198;-70
2021/07/06 10:51:59;;;;;;;0.90;0.90;;;25.30;87.00;;;;;;5060854;28;21218;-71
2021/07/06 10:54:29;;;;;;;0.80;0.80;;;25.10;89.30;;;;;;5061913;28;21208;-69
2021/07/06 10:56:59;;;;;;;1.13;1.00;;;25.10;89.50;;;;;;5063500;28;20663;-70
2021/07/06 10:59:28;;;;;;;0.90;0.90;;;24.80;91.30;;;;;;5065880;28;20648;-70
2021/07/06 11:02:01;;;;;;;1.70;1.10;;;24.90;91.10;;;;;;5065798;28;20744;-70
2021/07/06 11:05:05;;;;;;;2.40;0.93;;;24.90;90.90;;;;;;5067755;28;20663;-70
2021/07/06 11:07:52;;;;;;;1.00;1.00;;;24.90;90.70;;;;;;5066021;28;21448;-70
2021/07/06 11:10:21;;;;;;;1.03;0.93;;;25.30;91.90;;;;;;5060269;28;20967;-70
2021/07/06 11:12:51;;;;;;;1.47;1.00;;;25.70;90.40;;;;;;5060043;28;20632;-70
2021/07/06 11:15:30;;;;;;;1.80;1.00;;;25.80;90.80;;;;;;5061788;28;20659;-70
2021/07/06 11:18:02;;;;;;;1.10;1.10;;;25.70;90.10;;;;;;5065031;28;20644;-70
2021/07/06 11:20:41;;;;;;;1.10;1.10;;;25.60;91.00;;;;;;5056942;28;20630;-70
2021/07/06 11:23:13;;;;;;;1.13;1.03;;;25.90;91.30;;;;;;5061090;28;20633;-70
2021/07/06 11:25:43;;;;;;;1.40;1.30;;;26.30;91.00;;;;;;5065279;28;20680;-70
2021/07/06 11:28:18;;;;;;;1.00;1.00;;;26.70;88.10;;;;;;5057238;28;20657;-71
2021/07/06 11:30:50;;;;;;;1.20;1.20;;;26.70;87.20;;;;;;5049281;28;20634;-71
2021/07/06 11:33:19;;;;;;;1.07;1.07;;;26.60;89.70;;;;;;5064195;28;20626;-70
2021/07/06 11:35:48;;;;;;;1.07;1.07;;;26.50;87.60;;;;;;5067022;28;20654;-71
2021/07/06 11:38:16;;;;;;;3.07;1.23;;;26.40;89.30;;;;;;5064910;28;20662;-70
2021/07/06 11:40:45;;;;;;;1.40;1.30;;;26.50;87.70;;;;;;5059402;28;20637;-70
2021/07/06 11:43:16;;;;;;;1.30;1.20;;;26.60;87.80;;;;;;5065745;28;20645;-71
2021/07/06 11:45:47;;;;;;;1.40;1.30;;;26.50;87.00;;;;;;5065562;22;20775;-71
2021/07/06 11:48:16;;;;;;;1.20;1.20;;;26.00;90.00;;;;;;5041942;28;20751;-71
2021/07/06 11:50:44;;;;;;;1.40;1.30;;;25.50;91.10;;;;;;5048364;22;20672;-70
2021/07/06 11:53:12;;;;;;;1.40;1.20;;;25.40;89.80;;;;;;5037386;28;21218;-69
2021/07/06 11:55:41;;;;;;;1.57;1.20;;;25.30;91.00;;;;;;5045792;28;20641;-69
2021/07/06 11:58:10;;;;;;;1.27;1.17;;;25.00;91.90;;;;;;5047072;28;20628;-70
2021/07/06 12:03:25;;;;;;;1.20;1.10;;;24.90;92.90;;;;;;5063198;22;20694;-71
2021/07/06 12:05:55;;;;;;;1.33;1.17;;;25.00;93.20;;;;;;5076455;23;20680;-69
2021/07/06 12:08:24;;;;;;;1.37;1.27;;;25.30;93.70;;;;;;5039865;28;20645;-70
2021/07/06 12:10:53;;;;;;;1.83;1.47;;;25.60;92.70;;;;;;5037078;28;20646;-69
2021/07/06 12:13:20;;;;;;;0.93;0.93;;;25.80;92.00;;;;;;5044444;28;20643;-69
2021/07/06 12:15:48;;;;;;;1.53;1.43;;;25.90;91.20;;;;;;5037628;28;20721;-69
2021/07/06 12:18:16;;;;;;;1.80;1.20;;;25.90;90.90;;;;;;5045173;28;20725;-69
2021/07/06 12:20:43;;;;;;;2.30;1.13;;;26.00;90.60;;;;;;5043733;28;20666;-69
2021/07/06 12:23:10;;;;;;;1.33;1.17;;;26.00;90.70;;;;;;5040191;28;20629;-72
2021/07/06 12:25:37;;;;;;;2.13;1.17;;;26.20;90.50;;;;;;5045312;28;20678;-69
2021/07/06 12:28:06;;;;;;;0.80;0.80;;;26.30;90.40;;;;;;5045552;28;20674;-69
2021/07/06 12:30:34;;;;;;;1.80;1.10;;;26.10;88.70;;;;;;5045128;28;21396;-69
2021/07/06 12:33:07;;;;;;;0.80;0.80;;;25.60;90.00;;;;;;5046134;28;20737;-69
2021/07/06 12:35:34;;;;;;;0.70;0.70;;;25.30;89.80;;;;;;5044813;28;20635;-69
2021/07/06 12:38:02;;;;;;;0.83;0.80;;;25.10;90.30;;;;;;5039046;28;21312;-69
2021/07/06 12:40:29;;;;;;;0.73;0.73;;;24.70;92.30;;;;;;5042015;28;20679;-69
2021/07/06 12:42:57;;;;;;;1.07;0.97;;;24.50;91.60;;;;;;5045585;28;21031;-70
2021/07/06 12:45:32;;;;;;;0.80;0.80;;;24.60;91.50;;;;;;5044737;28;20672;-69
2021/07/06 12:47:59;;;;;;;0.77;0.77;;;24.70;92.60;;;;;;5038383;28;20634;-70
2021/07/06 12:50:27;;;;;;;0.87;0.87;;;24.60;91.70;;;;;;5043807;28;21260;-69
2021/07/06 12:52:57;;;;;;;1.03;0.93;;;24.80;93.80;;;;;;5041344;28;20652;-70
2021/07/06 12:55:25;;;;;;;0.90;0.90;;;25.00;93.50;;;;;;5048842;28;20632;-70
2021/07/06 12:57:54;;;;;;;0.60;0.60;;;25.20;92.30;;;;;;5048487;28;20642;-70